Time;durP1;ratioP1;P1;durP2;ratioP2;P2;SDS_P1;SDS_P2;PMS_P1;PMS_P2;Temp;Humidity;BMP_temperature;BMP_pressure;BME280_temperature;BME280_humidity;BME280_pressure;Samples;Min_cycle;Max_cycle;Signal;HPM_P1;HPM_P2
2022/07/13 00:00:15;;;;;;;1.80;1.20;;;17.00;99.90;;;;;;5056923;28;20193;-79
2022/07/13 00:02:41;;;;;;;1.30;1.20;;;16.80;99.90;;;;;;5056786;28;20178;-78
2022/07/13 00:05:07;;;;;;;1.20;1.10;;;16.70;99.90;;;;;;5056683;28;20272;-78
2022/07/13 00:07:34;;;;;;;1.67;1.30;;;16.80;99.90;;;;;;5056858;28;20643;-78
2022/07/13 00:09:59;;;;;;;1.20;1.10;;;16.90;99.90;;;;;;5073388;28;20189;-78
2022/07/13 00:12:25;;;;;;;2.00;1.20;;;17.10;99.90;;;;;;5056265;28;20177;-79
2022/07/13 00:14:51;;;;;;;1.20;1.10;;;17.10;99.90;;;;;;5073108;28;20280;-78
2022/07/13 00:17:17;;;;;;;1.20;1.10;;;17.20;99.90;;;;;;5056633;28;20208;-78
2022/07/13 00:19:42;;;;;;;2.07;1.30;;;17.10;99.90;;;;;;5072887;28;20235;-78
2022/07/13 00:22:08;;;;;;;1.43;1.33;;;17.20;99.90;;;;;;5056358;28;20177;-79
2022/07/13 00:24:34;;;;;;;1.23;1.13;;;17.20;99.90;;;;;;5073096;28;20544;-78
2022/07/13 00:27:00;;;;;;;1.30;1.20;;;17.10;99.90;;;;;;5056174;28;20193;-78
2022/07/13 00:29:25;;;;;;;1.83;1.40;;;17.10;99.90;;;;;;5056112;28;20200;-79
2022/07/13 00:31:51;;;;;;;1.87;1.20;;;16.90;99.90;;;;;;5055902;28;20249;-78
2022/07/13 00:34:17;;;;;;;3.20;1.40;;;16.80;99.90;;;;;;5055305;28;20185;-78
2022/07/13 00:36:42;;;;;;;2.03;1.30;;;16.80;99.90;;;;;;5056108;28;20204;-79
2022/07/13 00:39:08;;;;;;;1.77;1.10;;;16.90;99.90;;;;;;5056009;28;20200;-78
2022/07/13 00:41:34;;;;;;;1.60;1.50;;;16.90;99.90;;;;;;5055852;28;20180;-78
2022/07/13 00:44:09;;;;;;;1.20;1.10;;;16.90;99.90;;;;;;5055858;28;20268;-79
2022/07/13 00:46:36;;;;;;;1.60;1.20;;;17.00;99.90;;;;;;5072348;28;20181;-79
2022/07/13 00:49:03;;;;;;;1.30;1.20;;;17.00;99.90;;;;;;5055760;28;20177;-79
2022/07/13 00:51:29;;;;;;;1.30;1.20;;;16.80;99.90;;;;;;5055795;28;20283;-78
2022/07/13 00:53:55;;;;;;;1.20;1.10;;;16.90;99.90;;;;;;5055701;28;20181;-78
2022/07/13 00:56:22;;;;;;;2.77;1.20;;;16.90;99.90;;;;;;5072288;28;20226;-78
2022/07/13 00:58:48;;;;;;;1.30;1.20;;;16.80;99.90;;;;;;5072152;28;20177;-79
2022/07/13 01:01:14;;;;;;;1.40;1.30;;;17.00;99.90;;;;;;5055483;28;20188;-78
2022/07/13 01:03:39;;;;;;;1.67;1.30;;;17.00;99.90;;;;;;5055441;28;20197;-78
2022/07/13 01:06:07;;;;;;;2.77;1.20;;;17.00;99.90;;;;;;5055528;28;20342;-78
2022/07/13 01:08:34;;;;;;;1.20;1.10;;;17.10;99.90;;;;;;5071997;28;20185;-78
2022/07/13 01:11:01;;;;;;;1.43;1.23;;;17.10;99.90;;;;;;5055553;28;20208;-78
2022/07/13 01:13:27;;;;;;;1.47;1.30;;;17.10;99.90;;;;;;5071833;28;20181;-79
2022/07/13 01:15:52;;;;;;;1.30;1.20;;;17.20;99.90;;;;;;5055293;28;20740;-79
2022/07/13 01:18:18;;;;;;;1.30;1.20;;;17.20;99.90;;;;;;5071934;28;20230;-78
2022/07/13 01:20:44;;;;;;;1.30;1.20;;;17.20;99.90;;;;;;5054908;28;20217;-78
2022/07/13 01:23:11;;;;;;;1.20;1.20;;;17.20;99.90;;;;;;5055142;28;20176;-78
2022/07/13 01:25:37;;;;;;;1.40;1.30;;;17.20;99.90;;;;;;5071687;28;20177;-79
2022/07/13 01:28:03;;;;;;;2.17;1.20;;;17.20;99.90;;;;;;5055216;28;20212;-78
2022/07/13 01:30:29;;;;;;;1.40;1.30;;;17.20;99.90;;;;;;5054973;28;20291;-79
2022/07/13 01:32:54;;;;;;;1.00;1.00;;;17.00;99.90;;;;;;5055192;28;20181;-78
2022/07/13 01:35:22;;;;;;;1.40;1.30;;;17.00;99.90;;;;;;5055218;28;20201;-79
2022/07/13 01:37:48;;;;;;;1.20;1.10;;;17.00;99.90;;;;;;5071492;28;20227;-79
2022/07/13 01:40:14;;;;;;;2.00;1.30;;;16.90;99.90;;;;;;5054960;28;20288;-79
2022/07/13 01:42:48;;;;;;;3.23;1.40;;;16.90;99.90;;;;;;5054989;28;20197;-78
2022/07/13 01:45:16;;;;;;;1.23;1.20;;;16.90;99.90;;;;;;5054783;28;20185;-78
2022/07/13 01:47:44;;;;;;;1.20;1.10;;;17.00;99.90;;;;;;5071551;28;20268;-79
2022/07/13 01:50:11;;;;;;;1.27;1.17;;;17.00;99.90;;;;;;5071169;28;20701;-79
2022/07/13 01:52:37;;;;;;;1.30;1.20;;;17.00;99.90;;;;;;5054605;28;20173;-78
2022/07/13 01:55:04;;;;;;;1.43;1.10;;;17.10;99.90;;;;;;5071132;28;20181;-79
2022/07/13 01:57:30;;;;;;;1.50;1.40;;;17.10;99.90;;;;;;5071376;28;20184;-78
2022/07/13 02:00:00;;;;;;;1.30;1.10;;;17.20;99.90;;;;;;5054487;28;20222;-79
2022/07/13 02:02:26;;;;;;;1.30;1.20;;;17.30;99.90;;;;;;5054576;28;20554;-78
2022/07/13 02:04:52;;;;;;;1.80;1.10;;;17.40;99.90;;;;;;5054463;28;20210;-78
2022/07/13 02:07:17;;;;;;;1.40;1.30;;;17.30;99.90;;;;;;5054363;28;20188;-78
2022/07/13 02:09:43;;;;;;;1.40;1.30;;;17.20;99.90;;;;;;5054305;28;20197;-79
2022/07/13 02:12:09;;;;;;;1.30;1.20;;;17.10;99.90;;;;;;5054237;28;20181;-78
2022/07/13 02:14:34;;;;;;;1.60;1.30;;;17.10;99.90;;;;;;5054219;28;20177;-79
2022/07/13 02:17:00;;;;;;;1.20;1.13;;;17.00;99.90;;;;;;5054185;28;20205;-79
2022/07/13 02:19:25;;;;;;;1.53;1.30;;;16.90;99.90;;;;;;5054139;28;20220;-78
2022/07/13 02:21:51;;;;;;;1.40;1.30;;;16.80;99.90;;;;;;5054279;28;20200;-78
2022/07/13 02:24:16;;;;;;;1.47;1.20;;;16.70;99.90;;;;;;5054051;28;20179;-78
2022/07/13 02:26:42;;;;;;;1.13;1.03;;;16.70;99.90;;;;;;5054322;28;20177;-78
2022/07/13 02:29:08;;;;;;;2.77;1.20;;;16.70;99.90;;;;;;5054247;28;20239;-79
2022/07/13 02:31:34;;;;;;;1.37;1.23;;;16.80;99.90;;;;;;5054414;28;20181;-78
2022/07/13 02:34:00;;;;;;;1.93;1.30;;;16.90;99.90;;;;;;5054100;28;20177;-79
2022/07/13 02:36:26;;;;;;;1.57;1.30;;;16.90;99.90;;;;;;5054031;28;20752;-79
2022/07/13 02:38:52;;;;;;;1.37;1.27;;;17.00;99.90;;;;;;5053966;28;20174;-78
2022/07/13 02:41:17;;;;;;;1.63;1.37;;;17.00;99.90;;;;;;5054347;28;20169;-78
2022/07/13 02:43:43;;;;;;;1.97;1.30;;;16.90;99.90;;;;;;5053990;28;20177;-78
2022/07/13 02:46:08;;;;;;;1.40;1.30;;;16.80;99.90;;;;;;5053996;28;20267;-78
2022/07/13 02:48:34;;;;;;;1.30;1.20;;;16.80;99.90;;;;;;5053868;28;20203;-78
2022/07/13 02:51:00;;;;;;;1.50;1.40;;;16.80;99.90;;;;;;5054061;28;20250;-78
2022/07/13 02:53:25;;;;;;;1.60;1.50;;;16.80;99.90;;;;;;5053716;28;20200;-78
2022/07/13 02:55:51;;;;;;;1.40;1.30;;;16.70;99.90;;;;;;5054193;28;20208;-78
2022/07/13 02:58:17;;;;;;;1.40;1.30;;;16.70;99.90;;;;;;5058181;28;20169;-78
2022/07/13 03:00:42;;;;;;;1.40;1.30;;;16.70;99.90;;;;;;5057875;28;20189;-79
2022/07/13 03:03:08;;;;;;;1.73;1.40;;;16.70;99.90;;;;;;5057770;28;20675;-78
2022/07/13 03:05:33;;;;;;;1.27;1.17;;;16.60;99.90;;;;;;5057878;28;20340;-78
2022/07/13 03:07:59;;;;;;;1.40;1.30;;;16.60;99.90;;;;;;5057676;28;20275;-78
2022/07/13 03:10:25;;;;;;;1.67;1.10;;;16.70;99.90;;;;;;5057531;28;20299;-78
2022/07/13 03:12:50;;;;;;;1.40;1.30;;;16.70;99.90;;;;;;5057240;28;20234;-78
2022/07/13 03:15:16;;;;;;;1.33;1.23;;;16.60;99.90;;;;;;5057742;28;20247;-78
2022/07/13 03:17:42;;;;;;;2.37;1.30;;;16.60;99.90;;;;;;5057608;28;20287;-78
2022/07/13 03:20:08;;;;;;;1.63;1.20;;;16.60;99.90;;;;;;5111703;22;20571;-76
2022/07/13 03:22:34;;;;;;;1.30;1.20;;;16.50;99.90;;;;;;5073947;28;20169;-76
2022/07/13 03:25:00;;;;;;;1.30;1.20;;;16.50;99.90;;;;;;5074106;28;20230;-76
2022/07/13 03:27:25;;;;;;;1.30;1.20;;;16.40;99.90;;;;;;5057376;28;20256;-76
2022/07/13 03:29:51;;;;;;;1.30;1.20;;;16.40;99.90;;;;;;5067819;28;20194;-76
2022/07/13 03:32:17;;;;;;;1.53;1.10;;;16.50;99.90;;;;;;5037385;28;20227;-76
2022/07/13 03:34:42;;;;;;;1.40;1.30;;;16.60;99.90;;;;;;5037385;28;20575;-76
2022/07/13 03:37:08;;;;;;;1.30;1.20;;;16.60;99.90;;;;;;5037087;28;20206;-76
2022/07/13 03:39:34;;;;;;;1.33;1.23;;;16.60;99.90;;;;;;5037322;28;20682;-76
2022/07/13 03:42:00;;;;;;;1.50;1.40;;;16.50;99.90;;;;;;5053676;28;20180;-76
2022/07/13 03:44:26;;;;;;;2.33;1.33;;;16.40;99.90;;;;;;5053873;28;20271;-76
2022/07/13 03:46:51;;;;;;;1.77;1.37;;;16.50;99.90;;;;;;5054857;28;20658;-76
2022/07/13 03:49:17;;;;;;;1.53;1.37;;;16.50;99.90;;;;;;5036936;28;20177;-77
2022/07/13 03:51:43;;;;;;;1.43;1.33;;;16.60;99.90;;;;;;5036854;28;20185;-76
2022/07/13 03:54:08;;;;;;;1.73;1.47;;;16.50;99.90;;;;;;5053796;28;20169;-76
2022/07/13 03:56:34;;;;;;;1.40;1.30;;;16.50;99.90;;;;;;5053617;28;20269;-76
2022/07/13 03:59:00;;;;;;;1.40;1.30;;;16.60;99.90;;;;;;5036758;28;20260;-76
2022/07/13 04:01:26;;;;;;;2.57;1.30;;;16.60;99.90;;;;;;5036713;28;20576;-76
2022/07/13 04:03:52;;;;;;;1.57;1.20;;;16.60;99.90;;;;;;5054343;28;20170;-76
2022/07/13 04:06:18;;;;;;;1.43;1.33;;;16.60;99.90;;;;;;5036747;28;20178;-77
2022/07/13 04:08:44;;;;;;;1.73;1.27;;;16.60;99.90;;;;;;5052094;28;20178;-76
2022/07/13 04:11:09;;;;;;;1.40;1.30;;;16.60;99.90;;;;;;5036681;28;20198;-76
2022/07/13 04:13:36;;;;;;;1.13;1.13;;;16.70;99.90;;;;;;5019891;28;20232;-76
2022/07/13 04:16:01;;;;;;;1.33;1.23;;;16.70;99.90;;;;;;5020220;28;20205;-76
2022/07/13 04:18:27;;;;;;;1.43;1.20;;;16.70;99.90;;;;;;5020054;28;20177;-76
2022/07/13 04:20:52;;;;;;;1.67;1.30;;;16.60;99.90;;;;;;5052785;28;20347;-76
2022/07/13 04:23:18;;;;;;;1.90;1.30;;;16.60;99.90;;;;;;5036594;28;20238;-76
2022/07/13 04:25:44;;;;;;;1.40;1.23;;;16.70;99.90;;;;;;5019964;28;20178;-76
2022/07/13 04:28:10;;;;;;;1.40;1.30;;;16.80;99.90;;;;;;5053035;28;20170;-76
2022/07/13 04:30:36;;;;;;;1.83;1.50;;;16.80;99.90;;;;;;5036482;28;20202;-76
2022/07/13 04:33:01;;;;;;;1.60;1.30;;;16.80;99.90;;;;;;5019610;28;20182;-76
2022/07/13 04:35:27;;;;;;;1.33;1.23;;;16.90;99.90;;;;;;5052698;28;20193;-76
2022/07/13 04:37:53;;;;;;;2.27;1.40;;;17.00;99.90;;;;;;5036439;28;20673;-76
2022/07/13 04:40:18;;;;;;;1.57;1.47;;;17.00;99.90;;;;;;5052537;28;20646;-76
2022/07/13 04:42:45;;;;;;;1.70;1.40;;;16.90;99.90;;;;;;5019257;28;20197;-76
2022/07/13 04:45:11;;;;;;;1.57;1.40;;;17.00;99.90;;;;;;5019786;28;20197;-76
2022/07/13 04:47:37;;;;;;;1.50;1.40;;;17.00;99.90;;;;;;5052871;28;20208;-77
2022/07/13 04:50:03;;;;;;;1.70;1.60;;;17.10;99.90;;;;;;5035828;28;20206;-77
2022/07/13 04:52:28;;;;;;;3.43;1.70;;;17.10;99.90;;;;;;5052393;28;20181;-76
2022/07/13 04:54:54;;;;;;;2.17;1.60;;;17.10;99.90;;;;;;5036229;28;20177;-77
2022/07/13 04:57:19;;;;;;;1.40;1.30;;;17.20;99.90;;;;;;5052502;28;20209;-77
2022/07/13 04:59:45;;;;;;;1.83;1.50;;;17.10;99.90;;;;;;5035536;28;20197;-77
2022/07/13 05:02:11;;;;;;;2.00;1.50;;;17.20;99.90;;;;;;5019084;28;20235;-77
2022/07/13 05:04:36;;;;;;;1.57;1.47;;;17.20;99.90;;;;;;5019637;28;20633;-77
2022/07/13 05:07:02;;;;;;;1.50;1.40;;;17.20;99.90;;;;;;5019283;28;20268;-76
2022/07/13 05:09:28;;;;;;;2.57;1.50;;;17.30;99.90;;;;;;5052131;28;20225;-76
2022/07/13 05:11:53;;;;;;;1.60;1.50;;;17.30;99.90;;;;;;5052188;28;20173;-76
2022/07/13 05:14:19;;;;;;;1.40;1.30;;;17.30;99.90;;;;;;5035147;28;20186;-76
2022/07/13 05:16:45;;;;;;;1.60;1.50;;;17.40;99.90;;;;;;5035377;28;20209;-76
2022/07/13 05:19:11;;;;;;;3.10;1.47;;;17.40;99.90;;;;;;5018596;28;20177;-76
2022/07/13 05:21:37;;;;;;;2.70;1.37;;;17.50;99.90;;;;;;5052136;28;20207;-76
2022/07/13 05:24:03;;;;;;;1.50;1.40;;;17.60;99.90;;;;;;5018741;28;20176;-76
2022/07/13 05:26:28;;;;;;;1.93;1.50;;;17.70;99.90;;;;;;5035376;28;20181;-76
2022/07/13 05:28:54;;;;;;;1.83;1.40;;;17.70;99.90;;;;;;5035095;28;20182;-76
2022/07/13 05:31:19;;;;;;;1.40;1.30;;;17.80;99.90;;;;;;5051587;28;20197;-75
2022/07/13 05:33:45;;;;;;;1.73;1.40;;;17.90;99.90;;;;;;5034974;28;20273;-76
2022/07/13 05:36:10;;;;;;;1.90;1.80;;;18.00;99.90;;;;;;5051514;28;20251;-76
2022/07/13 05:38:36;;;;;;;1.77;1.40;;;18.20;99.90;;;;;;5018798;28;20182;-76
2022/07/13 05:41:02;;;;;;;2.60;1.50;;;18.20;99.90;;;;;;5035479;28;20586;-76
2022/07/13 05:43:28;;;;;;;1.97;1.43;;;18.30;99.90;;;;;;5035193;28;20180;-77
2022/07/13 05:45:53;;;;;;;1.60;1.50;;;18.40;99.90;;;;;;5035167;28;20201;-76
2022/07/13 05:48:19;;;;;;;1.93;1.60;;;18.60;99.90;;;;;;5051476;28;20189;-77
2022/07/13 05:50:45;;;;;;;1.63;1.53;;;18.80;99.90;;;;;;5051233;28;20231;-76
2022/07/13 05:53:11;;;;;;;2.37;1.50;;;18.90;99.90;;;;;;5053351;28;20177;-79
2022/07/13 05:55:36;;;;;;;2.10;1.50;;;18.80;99.90;;;;;;5036383;28;20216;-76
2022/07/13 05:58:03;;;;;;;1.57;1.47;;;18.90;99.90;;;;;;5051398;28;20189;-76
2022/07/13 06:00:28;;;;;;;2.67;1.50;;;18.80;99.90;;;;;;5034579;28;20546;-77
2022/07/13 06:02:54;;;;;;;2.60;1.60;;;18.90;99.90;;;;;;5051067;28;20178;-77
2022/07/13 06:05:20;;;;;;;1.93;1.60;;;18.90;99.90;;;;;;5018179;28;20173;-77
2022/07/13 06:07:45;;;;;;;1.57;1.47;;;19.10;99.90;;;;;;5034593;28;20636;-76
2022/07/13 06:10:11;;;;;;;1.83;1.50;;;19.10;99.90;;;;;;5017936;28;20308;-77
2022/07/13 06:12:37;;;;;;;1.63;1.53;;;19.20;99.90;;;;;;5034037;28;20178;-76
2022/07/13 06:15:03;;;;;;;2.13;1.43;;;19.30;99.90;;;;;;5051147;28;20185;-77
2022/07/13 06:17:29;;;;;;;1.83;1.47;;;19.40;99.90;;;;;;5052039;28;20190;-78
2022/07/13 06:19:55;;;;;;;1.90;1.70;;;19.50;99.90;;;;;;5052546;28;20228;-77
2022/07/13 06:22:20;;;;;;;1.60;1.50;;;19.60;99.90;;;;;;5035003;28;20546;-77
2022/07/13 06:24:46;;;;;;;2.00;1.60;;;19.60;99.90;;;;;;5035446;28;20174;-77
2022/07/13 06:27:12;;;;;;;1.70;1.60;;;19.80;99.90;;;;;;5051738;28;20639;-78
2022/07/13 06:29:38;;;;;;;1.70;1.60;;;19.90;99.90;;;;;;5034667;28;20200;-76
2022/07/13 06:32:04;;;;;;;2.30;1.40;;;20.00;99.90;;;;;;5034059;28;20178;-77
2022/07/13 06:34:30;;;;;;;1.80;1.70;;;20.10;99.90;;;;;;5035371;28;20280;-76
2022/07/13 06:36:55;;;;;;;4.03;1.95;;;20.20;99.90;;;;;;5051988;28;20198;-76
2022/07/13 06:39:21;;;;;;;1.65;1.55;;;20.30;99.90;;;;;;5017810;28;20200;-77
2022/07/13 06:41:46;;;;;;;1.92;1.75;;;20.50;99.90;;;;;;5034239;28;20227;-77
2022/07/13 06:44:12;;;;;;;2.38;1.80;;;20.60;99.90;;;;;;5034117;28;20189;-75
2022/07/13 06:46:38;;;;;;;2.58;1.75;;;20.80;99.90;;;;;;5034642;28;20182;-76
2022/07/13 06:49:04;;;;;;;4.05;1.70;;;20.90;99.90;;;;;;5033992;28;20184;-76
2022/07/13 06:51:30;;;;;;;2.75;1.70;;;21.10;99.90;;;;;;5050670;28;20190;-76
2022/07/13 06:53:55;;;;;;;1.48;1.38;;;21.20;99.90;;;;;;5033957;28;20272;-76
2022/07/13 06:56:21;;;;;;;2.92;1.40;;;21.30;99.90;;;;;;5033945;28;20205;-76
2022/07/13 06:58:47;;;;;;;2.42;1.40;;;21.50;99.90;;;;;;5033997;28;20324;-76
2022/07/13 07:01:12;;;;;;;3.22;2.08;;;21.60;99.90;;;;;;5050493;28;20209;-76
2022/07/13 07:03:38;;;;;;;2.25;1.50;;;21.70;99.90;;;;;;5033653;28;20174;-76
2022/07/13 07:06:04;;;;;;;1.80;1.55;;;21.80;99.90;;;;;;5034183;28;20693;-76
2022/07/13 07:08:30;;;;;;;1.85;1.35;;;21.90;99.90;;;;;;5033990;28;20182;-76
2022/07/13 07:10:56;;;;;;;2.25;1.40;;;22.10;99.90;;;;;;5050463;28;20216;-76
2022/07/13 07:13:22;;;;;;;1.45;1.35;;;22.20;99.90;;;;;;5033669;28;20182;-76
2022/07/13 07:15:48;;;;;;;2.85;1.35;;;22.30;99.90;;;;;;5033802;28;20205;-76
2022/07/13 07:18:14;;;;;;;1.35;1.25;;;22.40;99.90;;;;;;5051616;28;20173;-76
2022/07/13 07:20:39;;;;;;;2.75;1.40;;;22.50;99.90;;;;;;5033652;28;20216;-76
2022/07/13 07:23:05;;;;;;;1.42;1.33;;;22.60;99.90;;;;;;5050392;28;20173;-76
2022/07/13 07:25:31;;;;;;;1.73;1.50;;;22.80;99.90;;;;;;5050413;28;20207;-76
2022/07/13 07:27:56;;;;;;;2.50;1.33;;;22.90;99.90;;;;;;5050267;28;20276;-76
2022/07/13 07:30:25;;;;;;;2.10;1.20;;;23.00;99.90;;;;;;5019635;28;20197;-77
2022/07/13 07:32:51;;;;;;;3.35;1.48;;;23.10;99.90;;;;;;5018029;28;20184;-77
2022/07/13 07:35:17;;;;;;;1.75;1.33;;;23.10;99.90;;;;;;5050294;28;20182;-77
2022/07/13 07:37:43;;;;;;;1.75;1.30;;;23.20;99.90;;;;;;5050073;28;20182;-77
2022/07/13 07:40:11;;;;;;;2.30;1.35;;;23.30;99.90;;;;;;5033777;28;20198;-77
2022/07/13 07:42:36;;;;;;;1.58;1.20;;;23.40;99.90;;;;;;5035012;28;20613;-77
2022/07/13 07:45:08;;;;;;;1.38;1.27;;;23.50;99.90;;;;;;5053574;28;20651;-77
2022/07/13 07:47:33;;;;;;;1.80;1.30;;;23.60;99.90;;;;;;5037580;28;20177;-77
2022/07/13 07:49:59;;;;;;;1.50;1.20;;;23.80;99.90;;;;;;5053623;28;20194;-76
2022/07/13 07:52:25;;;;;;;2.65;1.35;;;24.00;99.90;;;;;;5037144;28;20178;-77
2022/07/13 07:54:50;;;;;;;1.52;1.20;;;24.10;99.90;;;;;;5020627;28;20209;-77
2022/07/13 07:57:16;;;;;;;3.92;1.20;;;24.20;99.90;;;;;;5036989;28;20201;-77
2022/07/13 07:59:41;;;;;;;1.75;1.20;;;24.30;99.90;;;;;;5053706;28;20186;-77
2022/07/13 08:02:08;;;;;;;1.55;1.40;;;24.50;99.90;;;;;;5036586;28;20170;-77
2022/07/13 08:04:34;;;;;;;1.52;1.33;;;24.50;99.90;;;;;;5053604;28;20174;-77
2022/07/13 08:07:00;;;;;;;3.33;1.45;;;24.60;99.90;;;;;;5020354;28;20182;-76
2022/07/13 08:09:26;;;;;;;1.98;1.13;;;24.80;99.90;;;;;;5053367;28;20174;-77
2022/07/13 08:11:52;;;;;;;1.95;1.40;;;25.00;99.90;;;;;;5020136;28;20620;-77
2022/07/13 08:14:18;;;;;;;1.48;1.38;;;25.20;99.90;;;;;;5036273;28;20186;-77
2022/07/13 08:16:44;;;;;;;1.75;1.63;;;25.20;99.90;;;;;;5053295;28;20201;-77
2022/07/13 08:19:10;;;;;;;1.80;1.23;;;25.20;99.90;;;;;;5036556;28;20679;-77
2022/07/13 08:21:36;;;;;;;2.30;1.40;;;25.10;99.90;;;;;;5052739;28;20607;-76
2022/07/13 08:24:02;;;;;;;1.55;1.42;;;25.10;99.90;;;;;;5036485;28;20217;-77
2022/07/13 08:26:29;;;;;;;3.05;1.63;;;25.10;99.90;;;;;;5036453;28;20593;-77
2022/07/13 08:28:56;;;;;;;1.73;1.35;;;25.10;99.90;;;;;;5054012;28;20227;-77
2022/07/13 08:31:23;;;;;;;2.42;1.35;;;25.40;99.90;;;;;;5036377;28;20201;-77
2022/07/13 08:39:19;;;;;;;1.52;1.35;;;26.20;98.20;;;;;;5054072;28;20184;-77
2022/07/13 08:41:46;;;;;;;2.20;1.65;;;26.10;97.50;;;;;;5053732;28;20162;-77
2022/07/13 08:44:11;;;;;;;1.40;1.25;;;26.00;98.70;;;;;;5052833;28;20169;-76
2022/07/13 08:46:38;;;;;;;2.75;1.23;;;26.00;97.90;;;;;;5035945;28;20273;-76
2022/07/13 08:49:04;;;;;;;3.50;1.48;;;25.90;97.40;;;;;;5052739;28;20173;-77
2022/07/13 08:51:34;;;;;;;2.33;1.27;;;25.80;96.50;;;;;;5036061;28;20205;-76
2022/07/13 08:54:01;;;;;;;2.00;1.30;;;25.70;97.10;;;;;;5019356;28;20174;-75
2022/07/13 08:56:27;;;;;;;1.40;1.23;;;25.60;96.70;;;;;;5052294;28;20237;-76
2022/07/13 08:58:53;;;;;;;1.48;1.30;;;25.60;96.90;;;;;;5052221;28;20206;-75
2022/07/13 09:01:19;;;;;;;2.65;1.20;;;25.50;96.40;;;;;;5052191;28;20185;-76
2022/07/13 09:07:11;;;;;;;2.20;1.13;;;25.60;97.90;;;;;;5053779;28;20188;-75
2022/07/13 09:09:38;;;;;;;2.45;1.20;;;25.60;96.30;;;;;;5052190;28;20189;-76
2022/07/13 09:12:22;;;;;;;1.17;1.08;;;25.60;96.40;;;;;;5053147;28;20638;-75
2022/07/13 09:14:53;;;;;;;1.70;1.17;;;25.70;95.20;;;;;;5035959;28;20180;-76
2022/07/13 09:17:34;;;;;;;1.75;1.30;;;25.70;96.50;;;;;;5035779;28;20209;-75
2022/07/13 09:20:15;;;;;;;4.97;1.25;;;25.70;96.60;;;;;;5061932;22;20213;-75
2022/07/13 09:22:58;;;;;;;3.00;1.27;;;25.70;96.50;;;;;;5071813;28;20237;-78
2022/07/13 09:25:39;;;;;;;3.35;1.10;;;25.70;96.80;;;;;;5055673;28;20270;-75
2022/07/13 09:28:08;;;;;;;1.42;1.10;;;25.70;96.50;;;;;;5071720;28;20222;-75
2022/07/13 09:30:36;;;;;;;2.08;1.30;;;25.70;95.20;;;;;;5072903;28;20216;-74
2022/07/13 09:33:03;;;;;;;2.20;1.20;;;25.70;94.70;;;;;;5071526;28;20259;-75
2022/07/13 09:35:47;;;;;;;2.05;1.30;;;25.70;93.80;;;;;;5071345;28;20719;-75
2022/07/13 09:38:33;;;;;;;1.23;1.13;;;25.80;93.70;;;;;;5072806;28;20169;-75
2022/07/13 09:41:26;;;;;;;3.80;1.30;;;25.90;93.40;;;;;;5072705;28;20736;-75
2022/07/13 09:46:59;;;;;;;1.83;1.20;;;25.90;93.00;;;;;;5073044;28;20172;-75
2022/07/13 09:49:31;;;;;;;1.42;1.33;;;25.90;93.30;;;;;;5071455;28;20181;-75
2022/07/13 09:51:57;;;;;;;3.85;1.40;;;25.90;93.00;;;;;;5072388;28;20539;-75
2022/07/13 09:54:26;;;;;;;2.88;1.27;;;25.90;93.30;;;;;;5071403;28;20252;-75
2022/07/13 09:57:00;;;;;;;1.33;1.23;;;26.00;93.20;;;;;;5071429;28;20246;-75
2022/07/13 09:59:29;;;;;;;1.75;1.10;;;25.90;92.80;;;;;;5054791;28;20177;-75
2022/07/13 10:01:55;;;;;;;1.13;1.10;;;26.00;93.30;;;;;;5072122;28;20189;-75
2022/07/13 10:04:22;;;;;;;4.50;1.33;;;26.00;93.00;;;;;;5054608;28;20173;-75
2022/07/13 10:06:49;;;;;;;1.33;1.23;;;26.10;92.90;;;;;;5070129;28;20203;-76
2022/07/13 10:09:25;;;;;;;1.55;1.40;;;26.20;92.50;;;;;;5054542;28;20181;-76
2022/07/13 10:11:50;;;;;;;3.17;1.20;;;26.40;93.60;;;;;;5071296;28;20196;-77
2022/07/13 10:14:18;;;;;;;1.88;1.15;;;26.40;92.00;;;;;;5054763;28;20235;-78
2022/07/13 10:16:44;;;;;;;2.90;1.30;;;26.40;91.80;;;;;;5054950;28;20670;-78
2022/07/13 10:19:11;;;;;;;1.88;1.30;;;26.50;92.00;;;;;;5055216;28;20236;-76
2022/07/13 10:21:53;;;;;;;1.60;1.50;;;26.60;91.60;;;;;;5072755;28;20254;-77
2022/07/13 10:24:19;;;;;;;4.68;1.35;;;26.50;90.60;;;;;;5071676;28;20317;-78
2022/07/13 10:26:48;;;;;;;3.30;1.30;;;26.60;90.70;;;;;;5054741;28;20661;-78
2022/07/13 10:29:15;;;;;;;2.17;1.30;;;26.80;90.00;;;;;;5070939;28;20224;-77
2022/07/13 10:31:42;;;;;;;1.63;1.15;;;26.80;90.80;;;;;;5071397;28;20192;-78
2022/07/13 10:34:10;;;;;;;1.70;1.40;;;26.80;90.30;;;;;;5055750;28;20222;-77
2022/07/13 10:36:48;;;;;;;2.10;1.10;;;26.80;89.30;;;;;;5054578;28;20208;-77
2022/07/13 10:39:14;;;;;;;2.13;1.25;;;26.60;90.30;;;;;;5072934;28;20196;-78
2022/07/13 10:42:02;;;;;;;2.20;1.35;;;26.60;89.00;;;;;;5060279;28;20204;-78
2022/07/13 10:44:32;;;;;;;1.83;1.25;;;26.60;88.80;;;;;;5075717;28;20639;-78
2022/07/13 10:46:58;;;;;;;1.85;1.13;;;26.60;90.10;;;;;;5070604;28;20551;-75
2022/07/13 10:49:32;;;;;;;1.30;1.20;;;26.60;90.10;;;;;;5053917;28;20188;-75
2022/07/13 10:52:25;;;;;;;1.30;1.20;;;26.50;89.40;;;;;;5070506;28;20207;-75
2022/07/13 10:55:07;;;;;;;3.33;1.40;;;26.40;90.40;;;;;;5067805;28;20185;-75
2022/07/13 10:57:37;;;;;;;1.77;1.17;;;26.40;90.60;;;;;;5071753;28;20189;-75
2022/07/13 11:00:22;;;;;;;1.65;1.25;;;26.40;90.30;;;;;;5054210;28;20250;-76
2022/07/13 11:03:01;;;;;;;2.85;1.52;;;26.30;91.20;;;;;;5070728;28;20689;-76
2022/07/13 11:05:33;;;;;;;5.50;1.40;;;26.20;92.70;;;;;;5055233;28;20180;-75
2022/07/13 11:08:16;;;;;;;1.25;1.13;;;26.30;93.80;;;;;;5070544;28;20646;-75
2022/07/13 11:10:43;;;;;;;1.77;1.15;;;26.30;93.80;;;;;;5070593;28;20211;-75
2022/07/13 11:13:13;;;;;;;1.88;1.40;;;26.20;92.80;;;;;;5070177;28;20197;-75
2022/07/13 11:15:52;;;;;;;1.17;1.08;;;26.20;92.00;;;;;;5053901;28;20330;-75
2022/07/13 11:18:27;;;;;;;4.10;1.30;;;26.20;92.60;;;;;;5072911;28;20169;-75
2022/07/13 11:21:13;;;;;;;1.45;1.27;;;26.30;93.50;;;;;;5058763;28;20212;-76
2022/07/13 11:26:48;;;;;;;1.95;1.20;;;26.40;90.30;;;;;;5078763;28;20164;-77
2022/07/13 11:29:42;;;;;;;2.10;1.20;;;26.50;90.10;;;;;;5077359;28;20172;-76
2022/07/13 11:32:07;;;;;;;1.40;1.10;;;26.70;87.90;;;;;;5073409;28;20180;-77
2022/07/13 11:34:35;;;;;;;2.47;1.10;;;26.70;84.80;;;;;;5057553;28;20173;-76
2022/07/13 11:37:01;;;;;;;1.13;1.02;;;26.80;85.10;;;;;;5074414;28;20208;-76
2022/07/13 11:39:29;;;;;;;1.40;1.20;;;26.70;82.90;;;;;;5057325;28;20173;-76
2022/07/13 11:41:56;;;;;;;1.23;1.13;;;26.60;83.80;;;;;;5073599;28;20197;-76
2022/07/13 11:44:40;;;;;;;2.05;1.30;;;26.50;82.70;;;;;;5055572;28;20184;-77
2022/07/13 11:47:09;;;;;;;1.42;1.33;;;26.50;82.70;;;;;;5065122;28;20162;-76
2022/07/13 11:49:43;;;;;;;3.00;1.20;;;26.50;83.70;;;;;;5070698;28;20245;-77
2022/07/13 11:52:21;;;;;;;2.25;1.30;;;26.60;84.60;;;;;;5069408;28;20276;-75
2022/07/13 11:55:05;;;;;;;1.83;1.30;;;26.70;85.50;;;;;;5057402;28;20173;-75
2022/07/13 11:57:32;;;;;;;1.38;1.20;;;26.90;84.30;;;;;;5073650;28;20261;-75
2022/07/13 12:00:05;;;;;;;1.40;1.30;;;27.00;83.20;;;;;;5073588;28;20195;-75
2022/07/13 12:02:30;;;;;;;1.85;1.30;;;27.10;86.50;;;;;;5073675;28;20161;-76
2022/07/13 12:04:56;;;;;;;1.83;1.30;;;27.60;86.60;;;;;;5037163;28;20208;-76
2022/07/13 12:07:28;;;;;;;1.65;1.27;;;27.80;83.80;;;;;;5054661;28;20201;-75
2022/07/13 12:09:58;;;;;;;1.88;1.23;;;28.30;83.60;;;;;;5053684;28;20232;-75
2022/07/13 12:12:40;;;;;;;1.55;1.30;;;28.20;83.70;;;;;;5053482;28;20173;-76
2022/07/13 12:15:07;;;;;;;2.55;1.38;;;28.40;81.80;;;;;;5054561;28;20240;-76
2022/07/13 12:17:50;;;;;;;2.35;1.25;;;28.40;79.70;;;;;;5036644;28;20206;-76
2022/07/13 12:20:18;;;;;;;1.40;1.30;;;28.50;80.10;;;;;;5054190;28;20743;-76
2022/07/13 12:22:55;;;;;;;3.30;1.40;;;28.50;75.70;;;;;;5053476;28;20174;-75
2022/07/13 12:25:34;;;;;;;2.40;1.45;;;28.50;77.30;;;;;;5071425;28;20583;-76
2022/07/13 12:28:01;;;;;;;3.83;1.52;;;29.00;78.30;;;;;;5073235;28;20658;-76
2022/07/13 12:30:28;;;;;;;1.73;1.20;;;29.40;74.30;;;;;;5055566;28;20251;-76
2022/07/13 12:32:59;;;;;;;1.30;1.20;;;29.60;71.60;;;;;;5074439;28;20169;-76
2022/07/13 12:35:45;;;;;;;2.28;1.38;;;29.50;68.00;;;;;;5040707;28;20168;-76
2022/07/13 12:38:14;;;;;;;2.08;1.40;;;29.60;66.00;;;;;;5072523;28;20200;-76
2022/07/13 12:40:43;;;;;;;3.58;1.25;;;29.50;63.90;;;;;;5053989;28;20194;-76
2022/07/13 12:43:26;;;;;;;1.65;1.30;;;29.70;66.90;;;;;;5069706;28;20166;-76
2022/07/13 12:45:53;;;;;;;1.88;1.45;;;30.10;64.20;;;;;;5054191;28;20259;-76
2022/07/13 12:48:23;;;;;;;4.60;1.65;;;30.20;62.50;;;;;;5054121;28;20177;-76
2022/07/13 12:51:05;;;;;;;2.90;1.30;;;30.10;59.00;;;;;;5037276;28;20286;-76
2022/07/13 12:53:48;;;;;;;1.75;1.40;;;29.90;59.40;;;;;;5069654;28;20251;-75
2022/07/13 12:56:18;;;;;;;1.73;1.40;;;30.00;59.40;;;;;;5069572;28;20283;-75
2022/07/13 12:58:48;;;;;;;1.58;1.30;;;30.10;58.30;;;;;;5069618;28;20314;-75
2022/07/13 13:01:34;;;;;;;1.65;1.40;;;30.00;58.70;;;;;;5052723;28;20193;-76
2022/07/13 13:04:02;;;;;;;2.13;1.40;;;30.40;58.70;;;;;;5053837;28;20693;-77
2022/07/13 13:06:29;;;;;;;1.40;1.30;;;30.30;58.80;;;;;;5052928;28;20655;-77